createdAt,value
2018-03-25T00:00:36.056Z,22.63
2018-03-25T00:03:04.345Z,21.43
2018-03-25T00:05:32.159Z,22.83
2018-03-25T00:07:59.713Z,26.40
2018-03-25T00:10:27.313Z,21.37
2018-03-25T00:12:54.906Z,23.57
2018-03-25T00:15:22.830Z,23.20
2018-03-25T00:17:50.398Z,22.57
2018-03-25T00:20:18.426Z,23.17
2018-03-25T00:22:45.980Z,26.03
2018-03-25T00:25:13.584Z,23.13
2018-03-25T00:27:41.160Z,21.83
2018-03-25T00:30:08.764Z,24.63
2018-03-25T00:32:36.371Z,22.67
2018-03-25T00:35:04.007Z,21.10
2018-03-25T00:37:31.613Z,21.93
2018-03-25T00:39:59.160Z,21.47
2018-03-25T00:42:26.779Z,21.67
2018-03-25T00:44:54.344Z,19.87
2018-03-25T00:47:22.429Z,23.37
2018-03-25T00:49:50.018Z,23.17
2018-03-25T00:52:17.617Z,22.03
2018-03-25T00:54:45.181Z,25.00
2018-03-25T00:57:12.781Z,21.23
2018-03-25T00:59:40.334Z,20.77
2018-03-25T01:02:08.520Z,21.37
2018-03-25T01:04:36.114Z,20.73
2018-03-25T01:07:03.673Z,20.53
2018-03-25T01:09:31.223Z,23.47
2018-03-25T01:11:58.819Z,21.60
2018-03-25T01:14:26.380Z,23.10
2018-03-25T01:16:53.928Z,21.07
2018-03-25T01:19:21.516Z,19.43
2018-03-25T01:21:49.905Z,21.77
2018-03-25T01:24:17.446Z,20.80
2018-03-25T01:26:45.799Z,24.20
2018-03-25T01:29:13.402Z,20.37
2018-03-25T01:31:40.944Z,20.73
2018-03-25T01:34:08.962Z,22.90
2018-03-25T01:36:36.572Z,22.10
2018-03-25T01:39:04.172Z,22.50
2018-03-25T01:41:31.751Z,22.57
2018-03-25T01:43:59.360Z,23.77
2018-03-25T01:46:26.903Z,22.67
2018-03-25T01:48:54.507Z,27.77
2018-03-25T01:51:22.061Z,20.07
2018-03-25T01:53:49.599Z,21.00
2018-03-25T01:56:17.193Z,22.03
2018-03-25T01:58:44.744Z,22.77
2018-03-25T02:01:12.667Z,21.07
2018-03-25T02:03:40.732Z,21.43
2018-03-25T02:06:08.964Z,21.97
2018-03-25T02:08:36.917Z,22.73
2018-03-25T02:11:04.509Z,21.77
2018-03-25T02:13:32.894Z,23.87
2018-03-25T02:16:00.941Z,22.63
2018-03-25T02:18:28.532Z,21.57
2018-03-25T02:20:56.127Z,22.33
2018-03-25T02:23:24.703Z,23.60
2018-03-25T02:25:52.265Z,23.77
2018-03-25T02:28:20.676Z,23.33
2018-03-25T02:30:48.230Z,27.43
2018-03-25T02:33:15.849Z,27.57
2018-03-25T02:35:43.762Z,24.47
2018-03-25T02:38:11.740Z,24.87
2018-03-25T02:40:40.312Z,21.07
2018-03-25T02:43:07.868Z,24.27
2018-03-25T02:45:35.451Z,23.43
2018-03-25T02:48:03.009Z,25.07
2018-03-25T02:50:30.599Z,24.27
2018-03-25T02:52:58.140Z,26.27
2018-03-25T02:55:25.742Z,26.43
2018-03-25T02:57:53.293Z,24.50
2018-03-25T03:00:20.882Z,26.23
2018-03-25T03:02:48.477Z,27.33
2018-03-25T03:05:16.490Z,24.43
2018-03-25T03:07:44.053Z,25.43
2018-03-25T03:10:11.646Z,24.20
2018-03-25T03:12:40.038Z,25.20
2018-03-25T03:15:07.579Z,26.20
2018-03-25T03:17:35.174Z,26.80
2018-03-25T03:20:02.743Z,25.63
2018-03-25T03:22:30.356Z,24.33
2018-03-25T03:24:57.939Z,25.50
2018-03-25T03:27:26.420Z,25.83
2018-03-25T03:29:54.433Z,26.17
2018-03-25T03:32:22.684Z,22.37
2018-03-25T03:34:50.227Z,28.57
2018-03-25T03:37:17.826Z,24.27
2018-03-25T03:39:45.418Z,25.27
2018-03-25T03:42:13.007Z,26.37
2018-03-25T03:44:40.595Z,24.43
2018-03-25T03:47:08.979Z,25.73
2018-03-25T03:49:36.528Z,27.57
2018-03-25T03:52:04.132Z,26.50
2018-03-25T03:54:31.670Z,27.87
2018-03-25T03:56:59.260Z,24.13
2018-03-25T03:59:26.846Z,29.43
2018-03-25T04:01:54.401Z,27.63
2018-03-25T04:04:21.992Z,28.57
2018-03-25T04:06:49.544Z,25.30
2018-03-25T04:09:17.651Z,29.70
2018-03-25T04:11:45.496Z,30.43
2018-03-25T04:14:13.358Z,29.57
2018-03-25T04:16:40.972Z,26.67
2018-03-25T04:19:08.572Z,28.10
2018-03-25T04:21:36.829Z,27.30
2018-03-25T04:24:04.420Z,28.70
2018-03-25T04:26:31.977Z,30.23
2018-03-25T04:28:59.528Z,28.80
2018-03-25T04:31:27.127Z,29.30
2018-03-25T04:33:54.681Z,29.20
2018-03-25T04:36:22.263Z,30.00
2018-03-25T04:38:49.860Z,29.93
2018-03-25T04:41:17.444Z,35.70
2018-03-25T04:43:44.990Z,28.23
2018-03-25T04:46:12.595Z,34.67
2018-03-25T04:48:40.173Z,31.27
2018-03-25T04:51:08.241Z,37.67
2018-03-25T04:53:35.839Z,36.97
2018-03-25T04:56:03.459Z,41.63
2018-03-25T04:58:31.061Z,36.00
2018-03-25T05:00:58.613Z,42.97
2018-03-25T05:03:26.413Z,52.47
2018-03-25T05:05:54.076Z,51.87
2018-03-25T05:08:21.619Z,52.40
2018-03-25T05:10:50.027Z,49.80
2018-03-25T05:13:17.620Z,50.30
2018-03-25T05:15:45.180Z,44.27
2018-03-25T05:18:13.516Z,45.37
2018-03-25T05:20:41.073Z,43.10
2018-03-25T05:23:09.481Z,53.47
2018-03-25T05:25:37.023Z,48.17
2018-03-25T05:28:05.135Z,47.27
2018-03-25T05:30:33.535Z,39.70
2018-03-25T05:33:01.247Z,43.40
2018-03-25T05:35:28.809Z,44.00
2018-03-25T05:37:56.402Z,43.77
2018-03-25T05:40:24.001Z,43.00
2018-03-25T05:42:52.421Z,41.05
2018-03-25T05:45:19.972Z,38.67
2018-03-25T05:47:48.173Z,37.85
2018-03-25T05:50:15.727Z,36.50
2018-03-25T05:52:43.327Z,37.07
2018-03-25T05:55:10.920Z,36.37
2018-03-25T05:57:39.063Z,41.53
2018-03-25T06:00:06.680Z,38.07
2018-03-25T06:02:35.051Z,43.13
2018-03-25T06:05:03.305Z,36.77
2018-03-25T06:07:31.332Z,36.15
2018-03-25T06:09:59.162Z,37.97
2018-03-25T06:12:27.979Z,35.17
2018-03-25T06:14:55.535Z,37.47
2018-03-25T06:17:24.545Z,36.75
2018-03-25T06:19:52.138Z,35.03
2018-03-25T06:22:20.688Z,36.13
2018-03-25T06:24:48.555Z,36.77
2018-03-25T06:27:16.144Z,34.15
2018-03-25T06:29:43.903Z,34.93
2018-03-25T06:32:11.456Z,35.97
2018-03-25T06:34:39.949Z,37.22
2018-03-25T06:37:07.513Z,36.93
2018-03-25T06:39:35.469Z,35.83
2018-03-25T06:42:03.024Z,35.92
2018-03-25T06:44:30.832Z,46.17
2018-03-25T06:46:59.235Z,49.10
2018-03-25T06:49:27.042Z,50.73
2018-03-25T06:51:56.333Z,54.10
2018-03-25T06:54:23.893Z,50.90
2018-03-25T06:56:53.059Z,53.90
2018-03-25T06:59:20.797Z,48.23
2018-03-25T07:01:48.480Z,48.40
2018-03-25T07:04:16.313Z,46.08
2018-03-25T07:06:43.869Z,44.83
2018-03-25T07:09:11.473Z,45.27
2018-03-25T07:11:39.072Z,41.88
2018-03-25T07:14:06.624Z,39.93
2018-03-25T07:16:34.221Z,42.55
2018-03-25T07:19:01.772Z,40.30
2018-03-25T07:21:29.925Z,36.63
2018-03-25T07:23:57.518Z,36.63
2018-03-25T07:26:25.071Z,39.33
2018-03-25T07:28:52.681Z,35.50
2018-03-25T07:31:20.284Z,33.80
2018-03-25T07:33:47.892Z,36.13
2018-03-25T07:36:15.503Z,35.47
2018-03-25T07:38:43.546Z,35.73
2018-03-25T07:41:11.152Z,33.47
2018-03-25T07:43:39.147Z,32.92
2018-03-25T07:46:06.753Z,49.30
2018-03-25T07:48:34.300Z,42.90
2018-03-25T07:51:01.903Z,43.20
2018-03-25T07:53:29.499Z,47.65
2018-03-25T07:55:57.113Z,59.03
2018-03-25T07:58:24.718Z,60.67
2018-03-25T08:00:52.638Z,63.87
2018-03-25T08:03:20.249Z,50.63
2018-03-25T08:05:47.833Z,57.90
2018-03-25T08:08:15.428Z,48.33
2018-03-25T08:10:42.985Z,54.45
2018-03-25T08:13:10.575Z,49.67
2018-03-25T08:15:38.531Z,50.53
2018-03-25T08:18:06.125Z,42.70
2018-03-25T08:20:33.705Z,41.53
2018-03-25T08:23:01.926Z,48.30
2018-03-25T08:25:30.439Z,50.07
2018-03-25T08:27:58.088Z,56.80
2018-03-25T08:30:26.199Z,56.13
2018-03-25T08:32:53.753Z,43.65
2018-03-25T08:35:21.829Z,44.53
2018-03-25T08:37:49.384Z,49.73
2018-03-25T08:40:16.976Z,46.03
2018-03-25T08:42:45.227Z,36.67
2018-03-25T08:45:12.778Z,40.43
2018-03-25T08:47:40.731Z,31.50
2018-03-25T08:50:09.423Z,44.20
2018-03-25T08:52:37.013Z,34.37
2018-03-25T08:55:04.769Z,35.73
2018-03-25T08:57:32.337Z,30.53
2018-03-25T08:59:59.966Z,37.13
2018-03-25T09:02:27.533Z,42.23
2018-03-25T09:04:55.619Z,39.67
2018-03-25T09:07:23.915Z,31.80
2018-03-25T09:09:51.479Z,36.97
2018-03-25T09:12:19.095Z,35.30
2018-03-25T09:14:48.139Z,36.20
2018-03-25T09:17:15.971Z,43.77
2018-03-25T09:19:43.523Z,38.43
2018-03-25T09:22:11.116Z,46.23
2018-03-25T09:24:38.940Z,43.73
2018-03-25T09:27:06.536Z,41.63
2018-03-25T09:29:34.089Z,53.07
2018-03-25T09:32:02.536Z,40.33
2018-03-25T09:34:30.151Z,37.63
2018-03-25T09:36:58.116Z,31.17
2018-03-25T09:39:26.565Z,30.97
2018-03-25T09:41:54.121Z,33.23
2018-03-25T09:44:22.090Z,33.43
2018-03-25T09:46:50.693Z,31.23
2018-03-25T09:49:18.243Z,29.13
2018-03-25T09:51:45.795Z,29.83
2018-03-25T09:54:13.891Z,36.43
2018-03-25T09:56:41.477Z,33.60
2018-03-25T09:59:09.080Z,32.13
2018-03-25T10:01:42.316Z,28.80
2018-03-25T10:04:11.078Z,30.57
2018-03-25T10:06:38.633Z,32.50
2018-03-25T10:09:06.772Z,34.03
2018-03-25T10:11:34.319Z,30.25
2018-03-25T10:14:01.884Z,26.33
2018-03-25T10:16:29.482Z,33.47
2018-03-25T10:18:57.130Z,35.53
2018-03-25T10:21:24.660Z,40.20
2018-03-25T10:23:52.738Z,37.67
2018-03-25T10:26:22.197Z,44.60
2018-03-25T10:28:49.805Z,38.13
2018-03-25T10:31:17.886Z,48.47
2018-03-25T10:33:45.476Z,45.37
2018-03-25T10:36:13.036Z,55.00
2018-03-25T10:38:41.159Z,32.70
2018-03-25T10:41:08.767Z,40.43
2018-03-25T10:43:36.359Z,33.90
2018-03-25T10:46:04.516Z,39.70
2018-03-25T10:48:32.123Z,27.40
2018-03-25T10:51:00.577Z,29.40
2018-03-25T10:53:29.400Z,33.60
2018-03-25T10:55:56.993Z,28.10
2018-03-25T10:58:25.433Z,27.97
2018-03-25T11:00:53.523Z,28.47
2018-03-25T11:03:21.135Z,26.97
2018-03-25T11:05:49.702Z,30.70
2018-03-25T11:08:17.863Z,31.40
2018-03-25T11:10:46.238Z,25.37
2018-03-25T11:13:13.828Z,25.37
2018-03-25T11:15:41.387Z,29.52
2018-03-25T11:18:09.358Z,22.63
2018-03-25T11:20:36.972Z,25.47
2018-03-25T11:23:04.610Z,28.07
2018-03-25T11:25:33.177Z,31.03
2018-03-25T11:28:00.746Z,31.25
2018-03-25T11:30:28.356Z,31.50
2018-03-25T11:32:55.935Z,31.57
2018-03-25T11:35:24.221Z,28.47
2018-03-25T11:37:51.805Z,31.57
2018-03-25T11:40:19.396Z,32.07
2018-03-25T11:42:47.756Z,34.80
2018-03-25T11:45:16.214Z,41.30
2018-03-25T11:47:43.768Z,35.23
2018-03-25T11:50:11.355Z,36.63
2018-03-25T11:52:38.918Z,29.27
2018-03-25T11:55:06.515Z,27.87
2018-03-25T11:57:34.067Z,37.80
2018-03-25T12:00:03.052Z,40.60
2018-03-25T12:02:31.404Z,33.67
2018-03-25T12:04:59.900Z,37.53
2018-03-25T12:07:27.680Z,38.63
2018-03-25T12:09:55.227Z,45.70
2018-03-25T12:12:22.774Z,53.70
2018-03-25T12:14:50.403Z,48.47
2018-03-25T12:17:19.147Z,42.93
2018-03-25T12:19:47.197Z,53.80
2018-03-25T12:22:15.483Z,44.70
2018-03-25T12:24:43.083Z,48.73
2018-03-25T12:27:12.293Z,46.03
2018-03-25T12:29:39.900Z,48.03
2018-03-25T12:32:07.626Z,56.10
2018-03-25T12:34:35.723Z,54.30
2018-03-25T12:37:04.168Z,65.70
2018-03-25T12:39:31.777Z,46.47
2018-03-25T12:42:00.245Z,43.83
2018-03-25T12:44:27.849Z,36.53
2018-03-25T12:46:56.555Z,38.13
2018-03-25T12:49:25.166Z,41.63
2018-03-25T12:51:52.903Z,45.27
2018-03-25T12:54:20.950Z,37.40
2018-03-25T12:56:48.773Z,34.10
2018-03-25T12:59:16.371Z,36.35
2018-03-25T13:01:45.554Z,28.10
2018-03-25T13:04:14.734Z,31.80
2018-03-25T13:06:43.341Z,31.40
2018-03-25T13:09:11.738Z,38.37
2018-03-25T13:11:39.295Z,37.43
2018-03-25T13:14:08.245Z,35.13
2018-03-25T13:16:36.062Z,32.10
2018-03-25T13:19:03.796Z,41.47
2018-03-25T13:21:31.911Z,36.63
2018-03-25T13:24:00.901Z,33.70
2018-03-25T13:26:28.497Z,39.43
2018-03-25T13:28:56.100Z,39.90
2018-03-25T13:31:24.327Z,27.53
2018-03-25T13:33:52.740Z,40.85
2018-03-25T13:36:20.617Z,36.53
2018-03-25T13:38:48.722Z,40.53
2018-03-25T13:41:16.697Z,50.17
2018-03-25T13:43:45.342Z,39.43
2018-03-25T13:46:12.936Z,35.30
2018-03-25T13:48:41.243Z,34.90
2018-03-25T13:51:08.844Z,46.53
2018-03-25T13:53:36.392Z,35.07
2018-03-25T13:56:04.928Z,32.73
2018-03-25T13:58:32.538Z,44.87
2018-03-25T14:01:00.874Z,30.73
2018-03-25T14:03:28.974Z,32.65
2018-03-25T14:05:56.573Z,41.10
2018-03-25T14:08:24.309Z,48.47
2018-03-25T14:10:52.006Z,32.23
2018-03-25T14:13:19.553Z,36.67
2018-03-25T14:15:47.181Z,38.03
2018-03-25T14:18:14.732Z,38.30
2018-03-25T14:20:44.006Z,36.97
2018-03-25T14:23:12.554Z,36.07
2018-03-25T14:25:40.125Z,33.90
2018-03-25T14:28:08.643Z,27.77
2018-03-25T14:30:36.212Z,33.40
2018-03-25T14:33:03.814Z,33.87
2018-03-25T14:35:31.424Z,31.67
2018-03-25T14:37:59.242Z,31.47
2018-03-25T14:40:27.807Z,32.47
2018-03-25T14:42:56.003Z,29.30
2018-03-25T14:45:23.582Z,29.83
2018-03-25T14:47:51.206Z,34.10
2018-03-25T14:50:20.128Z,39.03
2018-03-25T14:52:48.882Z,30.00
2018-03-25T14:55:18.028Z,33.77
2018-03-25T14:57:45.984Z,36.77
2018-03-25T15:00:14.796Z,30.57
2018-03-25T15:02:43.588Z,27.87
2018-03-25T15:05:11.739Z,34.53
2018-03-25T15:07:40.121Z,33.90
2018-03-25T15:10:08.523Z,30.87
2018-03-25T15:12:36.570Z,28.03
2018-03-25T15:15:04.473Z,30.07
2018-03-25T15:17:32.703Z,27.97
2018-03-25T15:20:00.793Z,25.23
2018-03-25T15:22:29.186Z,28.27
2018-03-25T15:24:57.783Z,26.67
2018-03-25T15:27:26.933Z,26.80
2018-03-25T15:29:55.844Z,26.30
2018-03-25T15:32:24.851Z,29.43
2018-03-25T15:34:54.468Z,28.77
2018-03-25T15:37:23.154Z,27.20
2018-03-25T15:39:52.763Z,29.20
2018-03-25T15:42:21.051Z,27.17
2018-03-25T15:44:49.817Z,27.77
2018-03-25T15:47:18.585Z,26.27
2018-03-25T15:49:47.184Z,29.13
2018-03-25T15:52:15.574Z,24.27
2018-03-25T15:54:44.278Z,29.17
2018-03-25T15:57:12.737Z,27.60
2018-03-25T15:59:41.275Z,29.03
2018-03-25T16:02:09.427Z,30.37
2018-03-25T16:04:38.064Z,32.80
2018-03-25T16:07:06.664Z,44.43
2018-03-25T16:09:35.133Z,40.43
2018-03-25T16:12:03.858Z,35.77
2018-03-25T16:14:33.432Z,35.07
2018-03-25T16:17:02.132Z,36.30
2018-03-25T16:19:30.408Z,38.70
2018-03-25T16:21:59.521Z,45.23
2018-03-25T16:24:30.314Z,42.13
2018-03-25T16:26:58.847Z,60.03
2018-03-25T16:29:27.456Z,52.37
2018-03-25T16:31:56.058Z,56.63
2018-03-25T16:34:25.000Z,61.83
2018-03-25T16:36:54.357Z,57.57
2018-03-25T16:39:24.598Z,65.90
2018-03-25T16:41:53.199Z,66.07
2018-03-25T16:44:23.211Z,55.83
2018-03-25T16:46:52.408Z,55.30
2018-03-25T16:49:21.380Z,61.00
2018-03-25T16:51:50.476Z,60.30
2018-03-25T16:54:18.869Z,59.37
2018-03-25T16:56:52.137Z,67.77
2018-03-25T16:59:22.562Z,71.50
2018-03-25T17:01:51.282Z,69.50
2018-03-25T17:04:19.729Z,67.87
2018-03-25T17:06:48.349Z,74.00
2018-03-25T17:09:18.633Z,74.00
2018-03-25T17:11:49.721Z,65.23
2018-03-25T17:14:18.487Z,74.63
2018-03-25T17:16:47.698Z,75.30
2018-03-25T17:19:17.675Z,65.37
2018-03-25T17:21:46.914Z,62.57
2018-03-25T17:24:16.358Z,68.73
2018-03-25T17:26:45.009Z,78.50
2018-03-25T17:29:15.007Z,75.77
2018-03-25T17:31:44.411Z,68.13
2018-03-25T17:34:15.009Z,74.20
2018-03-25T17:36:44.789Z,68.93
2018-03-25T17:39:13.590Z,72.33
2018-03-25T17:41:43.499Z,68.30
2018-03-25T17:44:14.965Z,62.73
2018-03-25T17:46:43.802Z,69.63
2018-03-25T17:49:12.958Z,77.30
2018-03-25T17:51:41.671Z,78.60
2018-03-25T17:54:10.263Z,74.33
2018-03-25T17:56:40.550Z,75.57
2018-03-25T17:59:10.399Z,108.80
2018-03-25T18:01:39.765Z,90.63
2018-03-25T18:04:08.572Z,89.63
2018-03-25T18:06:38.070Z,87.20
2018-03-25T18:09:07.469Z,86.40
2018-03-25T18:11:36.153Z,85.13
2018-03-25T18:14:07.488Z,93.10
2018-03-25T18:16:37.943Z,93.93
2018-03-25T18:19:07.559Z,96.03
2018-03-25T18:21:36.555Z,97.27
2018-03-25T18:24:05.751Z,85.83
2018-03-25T18:26:35.056Z,83.10
2018-03-25T18:29:04.764Z,73.50
2018-03-25T18:31:35.711Z,69.03
2018-03-25T18:34:04.591Z,76.83
2018-03-25T18:36:33.386Z,60.83
2018-03-25T18:39:02.946Z,68.53
2018-03-25T18:41:32.410Z,70.30
2018-03-25T18:44:01.879Z,69.17
2018-03-25T18:46:30.649Z,68.37
2018-03-25T18:49:00.144Z,70.60
2018-03-25T18:51:29.072Z,79.23
2018-03-25T18:53:58.064Z,80.20
2018-03-25T18:56:26.842Z,78.53
2018-03-25T18:58:54.884Z,74.63
2018-03-25T19:01:24.492Z,69.83
2018-03-25T19:03:54.242Z,62.83
2018-03-25T19:06:23.856Z,74.63
2018-03-25T19:08:53.311Z,82.40
2018-03-25T19:11:25.313Z,81.60
2018-03-25T19:13:54.302Z,89.27
2018-03-25T19:16:23.794Z,79.23
2018-03-25T19:18:51.800Z,77.03
2018-03-25T19:21:21.895Z,80.60
2018-03-25T19:23:50.671Z,74.80
2018-03-25T19:26:20.865Z,80.93
2018-03-25T19:28:50.120Z,80.23
2018-03-25T19:31:18.889Z,89.43
2018-03-25T19:33:48.456Z,96.10
2018-03-25T19:36:17.560Z,97.90
2018-03-25T19:38:47.804Z,98.30
2018-03-25T19:41:15.862Z,90.67
2018-03-25T19:43:44.979Z,92.97
2018-03-25T19:46:13.789Z,84.27
2018-03-25T19:48:42.962Z,86.27
2018-03-25T19:51:12.266Z,84.67
2018-03-25T19:53:46.538Z,89.83
2018-03-25T19:56:17.070Z,79.10
2018-03-25T19:58:46.422Z,84.87
2018-03-25T20:01:15.363Z,84.77
2018-03-25T20:03:44.208Z,84.00
2018-03-25T20:06:13.652Z,89.37
2018-03-25T20:08:44.190Z,86.80
2018-03-25T20:11:12.986Z,82.97
2018-03-25T20:13:42.169Z,93.27
2018-03-25T20:16:11.703Z,86.33
2018-03-25T20:18:40.595Z,83.70
2018-03-25T20:21:09.018Z,86.70
2018-03-25T20:23:37.473Z,83.73
2018-03-25T20:26:07.745Z,84.43
2018-03-25T20:28:37.658Z,92.23
2018-03-25T20:31:06.654Z,91.50
2018-03-25T20:33:35.030Z,82.67
2018-03-25T20:36:03.763Z,83.10
2018-03-25T20:38:33.913Z,95.67
2018-03-25T20:41:03.435Z,79.30
2018-03-25T20:43:32.096Z,86.67
2018-03-25T20:46:04.904Z,80.87
2018-03-25T20:48:33.302Z,87.77
2018-03-25T20:51:03.746Z,83.93
2018-03-25T20:53:32.799Z,87.10
2018-03-25T20:56:04.256Z,83.07
2018-03-25T20:58:33.359Z,84.50
2018-03-25T21:01:02.643Z,88.03
2018-03-25T21:03:30.920Z,86.87
2018-03-25T21:05:59.608Z,86.93
2018-03-25T21:08:28.862Z,91.97
2018-03-25T21:10:57.130Z,83.00
2018-03-25T21:13:26.589Z,79.70
2018-03-25T21:15:55.266Z,84.70
2018-03-25T21:18:24.260Z,88.10
2018-03-25T21:20:54.468Z,88.00
2018-03-25T21:23:23.728Z,93.03
2018-03-25T21:25:52.404Z,92.73
2018-03-25T21:28:21.565Z,90.23
2018-03-25T21:30:49.844Z,94.60
2018-03-25T21:33:18.524Z,93.10
2018-03-25T21:35:47.824Z,87.87
2018-03-25T21:38:16.128Z,88.07
2018-03-25T21:40:44.573Z,98.07
2018-03-25T21:43:12.950Z,89.70
2018-03-25T21:45:41.224Z,98.13
2018-03-25T21:48:09.232Z,94.80
2018-03-25T21:50:37.456Z,90.37
2018-03-25T21:53:05.720Z,88.43
2018-03-25T21:55:33.277Z,92.03
2018-03-25T21:58:01.093Z,86.27
2018-03-25T22:00:28.951Z,94.80
2018-03-25T22:02:56.546Z,93.50
2018-03-25T22:05:24.142Z,77.40
2018-03-25T22:07:52.404Z,78.60
2018-03-25T22:10:19.968Z,76.97
2018-03-25T22:12:47.516Z,79.97
2018-03-25T22:15:15.120Z,79.17
2018-03-25T22:17:42.680Z,78.50
2018-03-25T22:20:10.286Z,76.53
2018-03-25T22:22:38.840Z,82.83
2018-03-25T22:25:06.436Z,77.97
2018-03-25T22:27:34.722Z,74.77
2018-03-25T22:30:02.472Z,79.43
2018-03-25T22:32:30.175Z,76.47
2018-03-25T22:34:58.300Z,73.73
2018-03-25T22:37:25.898Z,75.60
2018-03-25T22:39:53.504Z,73.20
2018-03-25T22:42:21.097Z,74.27
2018-03-25T22:44:48.644Z,68.83
2018-03-25T22:47:16.228Z,64.20
2018-03-25T22:49:43.783Z,66.23
2018-03-25T22:52:11.395Z,69.10
2018-03-25T22:54:38.941Z,67.87
2018-03-25T22:57:06.539Z,76.17
2018-03-25T22:59:34.083Z,68.27
2018-03-25T23:02:01.667Z,62.77
2018-03-25T23:04:29.261Z,67.67
2018-03-25T23:06:56.860Z,69.23
2018-03-25T23:09:24.461Z,73.40
2018-03-25T23:11:51.998Z,71.87
2018-03-25T23:14:20.024Z,65.47
2018-03-25T23:16:47.620Z,67.57
2018-03-25T23:19:15.178Z,68.47
2018-03-25T23:21:42.720Z,64.33
2018-03-25T23:24:10.308Z,60.70
2018-03-25T23:26:37.908Z,63.73
2018-03-25T23:29:05.507Z,68.37
2018-03-25T23:31:33.149Z,63.13
2018-03-25T23:34:00.745Z,58.00
2018-03-25T23:36:28.638Z,58.83
2018-03-25T23:38:56.215Z,67.53
2018-03-25T23:41:23.851Z,62.27
2018-03-25T23:43:51.435Z,60.77
2018-03-25T23:46:19.571Z,60.80
2018-03-25T23:48:47.175Z,64.93
2018-03-25T23:51:14.781Z,65.50
2018-03-25T23:53:42.339Z,68.37
2018-03-25T23:56:09.928Z,63.70
2018-03-25T23:58:37.467Z,60.50
